ADT weather

Ada Regional Airport
Ada, Oklahoma, United States

Public forecast

Using degrees Fahrenheit for public forecast. Weather courtesy of forecast.io.

METAR (pilot weather report)

Retrieved 2019/05/20 01:35 UTC (18 minutes ago):

KADH 200135Z AUTO 00000KT 10SM CLR 20/14 A2991 RMK AO2

TAF (pilot weather forecast)

Forecast is more than 12 hours old.

Closest forecast is Mc Alester Regional Airport, 44.0 nm (81.5 km) E. Retrieved 2019/05/19 00:22 UTC (1 day ago):

TAF KMLC 192320Z 2000/2024 06004KT P6SM BKN250 FM201000 10011KT P6SM OVC025 FM201600 15013G20KT P6SM VCTS BKN035CB